Latest Weather Observations for West Roebuck

IDW60801

Issued at 9:32 pm WST Tuesday 12 December 2017 (issued every 30 minutes, with the page automatically refreshed every 10 minutes)

About weather observations | Map of weather stations | Latest weather observations for WA | Other Formats
Station Details ID: 003096 Name: WEST ROEBUCK Lat: -17.90 Lon: 122.31 Height: 32.0 m
Data from the previous 72 hours. | See also: Recent months at West Roebuck
Date/Time
WST
Temp
°C
App
Temp
°C
Dew
Point
°C
Rel
Hum
%
Delta-T
°C
Wind Press
QNH
hPa
Press
MSL
hPa
Rain since
9am
mm
Dir  Spd
km/h
Gust
km/h
Spd
kts
Gust
kts
12/09:30pm 28.1 - - - - WSW 9 11 5 6 - - 0.0
12/09:00pm 27.7 - - - - W 9 13 5 7 - - 0.0
12/08:30pm 28.2 - - - - W 9 11 5 6 - - 0.0
12/08:00pm 28.4 - - - - W 7 9 4 5 - - 0.0
12/07:30pm 28.9 - - - - WSW 9 13 5 7 - - 0.0
12/07:00pm 29.2 - - - - WSW 11 17 6 9 - - 0.0
12/06:30pm 29.5 - - - - WSW 11 20 6 11 - - 0.0
12/06:00pm 30.1 - - - - WSW 17 26 9 14 - - 0.0
12/05:30pm 31.0 - - - - WSW 20 30 11 16 - - 0.0
12/05:00pm 32.0 - - - - WSW 19 28 10 15 - - 0.0
12/04:30pm 32.8 - - - - WSW 19 28 10 15 - - 0.0
12/04:00pm 33.4 - - - - WSW 17 30 9 16 - - 0.0
12/03:30pm 33.8 - - - - WSW 20 32 11 17 - - 0.0
12/03:00pm 33.4 - - - - WSW 24 35 13 19 - - 0.0
12/02:30pm 34.1 - - - - WSW 20 30 11 16 - - 0.0
12/02:00pm 34.0 - - - - WSW 22 32 12 17 - - 0.0
12/01:30pm 34.0 - - - - WSW 24 35 13 19 - - 0.0
12/01:00pm 34.8 - - - - W 20 30 11 16 - - 0.0
12/12:30pm 35.0 - - - - WSW 20 30 11 16 - - 0.0
12/12:00pm 34.6 - - - - WSW 17 30 9 16 - - 0.0
12/11:30am 33.7 - - - - WSW 20 30 11 16 - - 0.0
12/11:00am 34.0 - - - - WSW 19 32 10 17 - - 0.0
12/10:30am 33.7 - - - - SW 19 28 10 15 - - 0.0
12/10:00am 33.5 - - - - SW 15 26 8 14 - - 0.0
12/09:30am 33.2 - - - - SW 13 24 7 13 - - 0.0
12/09:00am 32.4 - - - - SSW 17 28 9 15 - - 9.0
12/08:30am 31.6 - - - - SSW 13 24 7 13 - - 9.0
12/08:00am 30.9 - - - - SW 17 22 9 12 - - 9.0
12/07:30am 31.0 - - - - SSW 17 24 9 13 - - 9.0
12/07:00am 30.5 - - - - SW 13 19 7 10 - - 9.0
12/06:30am 30.2 - - - - WSW 11 17 6 9 - - 9.0
12/06:00am 28.8 - - - - SW 9 13 5 7 - - 9.0
12/05:30am 28.4 - - - - SW 7 9 4 5 - - 9.0
12/05:00am 28.4 - - - - SW 9 13 5 7 - - 9.0
12/04:30am 28.6 - - - - SW 9 13 5 7 - - 9.0
12/04:00am 28.7 - - - - WSW 9 17 5 9 - - 9.0
12/03:30am 28.8 - - - - WSW 9 13 5 7 - - 9.0
12/03:00am 28.8 - - - - SW 11 17 6 9 - - 9.0
12/02:30am 28.8 - - - - WSW 9 15 5 8 - - 9.0
12/02:00am 28.8 - - - - WSW 9 15 5 8 - - 9.0
12/01:30am 28.9 - - - - WSW 9 13 5 7 - - 9.0
12/01:00am 28.7 - - - - WSW 9 48 5 26 - - 9.0
12/12:30am 28.6 - - - - WSW 7 13 4 7 - - 9.0
12/12:00am 28.1 - - - - WSW 7 9 4 5 - - 9.0
 
Date/Time
WST
Temp
°C
App
Temp
°C
Dew
Point
°C
Rel
Hum
%
Delta-T
°C
Wind Press
QNH
hPa
Press
MSL
hPa
Rain since
9am
mm
Dir  Spd
km/h
Gust
km/h
Spd
kts
Gust
kts
11/11:30pm 28.1 - - - - WSW 7 9 4 5 - - 9.0
11/11:00pm 28.6 - - - - WSW 7 9 4 5 - - 9.0
11/10:30pm 28.9 - - - - WSW 7 9 4 5 - - 9.0
11/10:00pm 29.3 - - - - WSW 9 11 5 6 - - 9.0
11/09:30pm 29.5 - - - - SW 7 13 4 7 - - 9.0
11/09:00pm 29.4 - - - - WSW 7 11 4 6 - - 9.0
11/08:30pm 29.5 - - - - W 7 9 4 5 - - 9.0
11/08:00pm 29.5 - - - - WSW 9 13 5 7 - - 9.0
11/07:30pm 29.7 - - - - W 7 11 4 6 - - 9.0
11/07:00pm 29.7 - - - - WNW 7 11 4 6 - - 9.0
11/06:30pm 29.9 - - - - WNW 9 11 5 6 - - 9.0
11/06:00pm 30.4 - - - - WNW 11 15 6 8 - - 9.0
11/05:30pm 30.4 - - - - NW 7 15 4 8 - - 9.0
11/05:00pm 31.3 - - - - NW 11 20 6 11 - - 9.0
11/04:30pm 28.3 - - - - S 6 11 3 6 - - 9.0
11/04:00pm 25.3 - - - - NW 20 32 11 17 - - 8.8
11/03:30pm 24.5 - - - - N 30 54 16 29 - - 0.6
11/03:29pm 24.1 - - - - N 30 54 16 29 - - 0.4
11/03:25pm 25.0 - - - - N 26 44 14 24 - - 0.0
11/03:15pm 30.0 - - - - N 28 46 15 25 - - 0.0
11/03:00pm 33.7 - - - - W 20 30 11 16 - - 0.0
11/02:30pm 35.3 - - - - SW 17 24 9 13 - - 0.0
11/02:00pm 36.6 - - - - SW 19 24 10 13 - - 0.0
11/01:30pm 36.8 - - - - SSW 20 32 11 17 - - 0.0
11/01:00pm 37.4 - - - - S 19 28 10 15 - - 0.0
11/12:30pm 37.5 - - - - SSW 13 22 7 12 - - 0.0
11/12:00pm 37.4 - - - - SSW 15 28 8 15 - - 0.0
11/11:30am 36.4 - - - - S 9 17 5 9 - - 0.0
11/11:00am 35.6 - - - - SSE 15 24 8 13 - - 0.0
11/10:30am 34.6 - - - - ESE 13 24 7 13 - - 0.0
11/10:00am 34.8 - - - - ESE 13 24 7 13 - - 0.0
11/09:30am 33.5 - - - - SE 13 22 7 12 - - 0.0
11/09:00am 32.9 - - - - SSE 13 20 7 11 - - 0.0
11/08:30am 31.8 - - - - SSE 13 19 7 10 - - 0.0
11/08:00am 32.0 - - - - S 11 17 6 9 - - 0.0
11/07:30am 30.5 - - - - SSW 9 15 5 8 - - 0.0
11/07:00am 30.0 - - - - S 11 15 6 8 - - 0.0
11/06:30am 28.9 - - - - S 6 9 3 5 - - 0.0
11/06:00am 27.8 - - - - CALM 0 6 0 3 - - 0.0
11/05:30am 26.6 - - - - WSW 7 7 4 4 - - 0.0
11/05:00am 26.0 - - - - WSW 2 9 1 5 - - 0.0
11/04:30am 26.2 - - - - CALM 0 0 0 0 - - 0.0
11/04:00am 26.4 - - - - WSW 2 6 1 3 - - 0.0
11/03:30am 26.4 - - - - W 6 6 3 3 - - 0.0
11/03:00am 26.6 - - - - W 7 7 4 4 - - 0.0
11/02:30am 26.7 - - - - WNW 6 7 3 4 - - 0.0
11/02:00am 26.7 - - - - NW 7 7 4 4 - - 0.0
11/01:30am 26.7 - - - - WNW 6 6 3 3 - - 0.0
11/01:00am 26.8 - - - - WSW 6 7 3 4 - - 0.0
11/12:30am 26.8 - - - - WSW 7 9 4 5 - - 0.0
11/12:00am 26.9 - - - - WSW 7 9 4 5 - - 0.0
 
Date/Time
WST
Temp
°C
App
Temp
°C
Dew
Point
°C
Rel
Hum
%
Delta-T
°C
Wind Press
QNH
hPa
Press
MSL
hPa
Rain since
9am
mm
Dir  Spd
km/h
Gust
km/h
Spd
kts
Gust
kts
10/11:30pm 27.0 - - - - WSW 6 9 3 5 - - 0.0
10/11:00pm 27.1 - - - - W 6 7 3 4 - - 0.0
10/10:30pm 27.4 - - - - CALM 0 7 0 4 - - 0.0
10/10:00pm 27.5 - - - - CALM 0 0 0 0 - - 0.0
10/09:30pm 27.7 - - - - CALM 0 0 0 0 - - 0.0
10/09:00pm 28.3 - - - - W 4 7 2 4 - - 0.0
10/08:30pm 28.4 - - - - CALM 0 4 0 2 - - 0.0
10/08:00pm 28.7 - - - - W 7 7 4 4 - - 0.0
10/07:30pm 29.2 - - - - W 4 7 2 4 - - 0.0
10/07:00pm 29.6 - - - - W 6 9 3 5 - - 0.0
10/06:30pm 30.0 - - - - WNW 13 17 7 9 - - 0.0
10/06:00pm 30.6 - - - - W 17 28 9 15 - - 0.0
10/05:30pm 31.9 - - - - WNW 15 24 8 13 - - 0.0
10/05:00pm 32.8 - - - - WNW 17 26 9 14 - - 0.0
10/04:30pm 34.7 - - - - WNW 17 28 9 15 - - 0.0
10/04:00pm 35.6 - - - - WNW 19 26 10 14 - - 0.0
10/03:30pm 36.7 - - - - WNW 19 28 10 15 - - 0.0
10/03:00pm 38.1 - - - - WNW 17 24 9 13 - - 0.0
10/02:30pm 37.7 - - - - SSW 11 17 6 9 - - 0.0
10/02:00pm 38.5 - - - - SSW 13 20 7 11 - - 0.0
10/01:30pm 38.5 - - - - SE 9 17 5 9 - - 0.0
10/01:00pm 37.7 - - - - NNE 7 15 4 8 - - 0.0
10/12:30pm 36.7 - - - - SE 7 15 4 8 - - 0.0
10/12:00pm 35.2 - - - - SE 7 15 4 8 - - 0.0
10/11:30am 33.7 - - - - SE 7 15 4 8 - - 0.0
10/11:00am 31.5 - - - - SSE 9 15 5 8 - - 0.0
10/10:30am 30.4 - - - - SE 11 17 6 9 - - 0.0
10/10:00am 29.4 - - - - ESE 13 19 7 10 - - 0.0
10/09:30am 28.1 - - - - ESE 15 24 8 13 - - 0.0
10/09:00am 26.8 - - - - E 13 19 7 10 - - 0.0
10/08:30am 25.9 - - - - E 11 19 6 10 - - 0.0
10/08:00am 25.4 - - - - ENE 13 24 7 13 - - 0.0
10/07:30am 25.0 - - - - ENE 19 28 10 15 - - 0.0
10/07:00am 24.8 - - - - E 13 22 7 12 - - 0.0
10/06:30am 24.2 - - - - ENE 15 26 8 14 - - 0.0
10/06:00am 23.8 - - - - ENE 22 32 12 17 - - 0.0
10/05:30am 24.2 - - - - ENE 17 32 9 17 - - 0.0
10/05:00am 24.7 - - - - E 26 39 14 21 - - 0.0
10/04:31am 26.7 - - - - E 28 50 15 27 - - 0.0
10/04:30am 26.9 - - - - E 26 50 14 27 - - 0.0
10/04:00am 28.3 - - - - SE 11 17 6 9 - - 0.0
10/03:30am 28.8 - - - - S 11 17 6 9 - - 0.0
10/03:00am 28.5 - - - - SW 7 11 4 6 - - 0.0
10/02:30am 28.8 - - - - SW 7 11 4 6 - - 0.0
10/02:00am 28.9 - - - - SSW 9 15 5 8 - - 0.0
10/01:30am 28.7 - - - - W 9 15 5 8 - - 0.0
10/01:00am 28.7 - - - - W 13 20 7 11 - - 0.0
10/12:30am 28.7 - - - - W 13 19 7 10 - - 0.0
10/12:00am 28.7 - - - - WNW 11 17 6 9 - - 0.0
 
Date/Time
WST
Temp
°C
App
Temp
°C
Dew
Point
°C
Rel
Hum
%
Delta-T
°C
Wind Press
QNH
hPa
Press
MSL
hPa
Rain since
9am
mm
Dir  Spd
km/h
Gust
km/h
Spd
kts
Gust
kts
09/11:30pm 28.8 - - - - WNW 11 15 6 8 - - 0.0
09/11:00pm 28.9 - - - - WNW 11 17 6 9 - - 0.0
09/10:30pm 29.0 - - - - WNW 11 19 6 10 - - 0.0
09/10:00pm 28.8 - - - - WNW 13 19 7 10 - - 0.0

Other Formats:

Comma delimited format used in spreadsheet applications
http://www.bom.gov.au/fwo/IDW60801/IDW60801.95204.axf

JavaScript Object Notation format (JSON) in row-major order
http://www.bom.gov.au/fwo/IDW60801/IDW60801.95204.json